sensor_id;sensor_type;location;lat;lon;timestamp;P1;durP1;ratioP1;P2;durP2;ratioP2
53519;SDS011;39397;53.204;5.778;2022-12-15T00:01:49;9.35;;;2.65;;
53519;SDS011;39397;53.204;5.778;2022-12-15T00:04:34;7.13;;;2.28;;
53519;SDS011;39397;53.204;5.778;2022-12-15T00:07:24;7.65;;;2.15;;
53519;SDS011;39397;53.204;5.778;2022-12-15T00:10:14;7.70;;;2.08;;
53519;SDS011;39397;53.204;5.778;2022-12-15T00:13:11;4.93;;;1.58;;
53519;SDS011;39397;53.204;5.778;2022-12-15T00:15:56;7.75;;;1.65;;
53519;SDS011;39397;53.204;5.778;2022-12-15T00:21:28;9.07;;;2.05;;
53519;SDS011;39397;53.204;5.778;2022-12-15T00:24:15;6.30;;;1.75;;
53519;SDS011;39397;53.204;5.778;2022-12-15T00:26:59;4.00;;;1.38;;
53519;SDS011;39397;53.204;5.778;2022-12-15T00:29:47;3.25;;;1.00;;
53519;SDS011;39397;53.204;5.778;2022-12-15T00:32:31;5.05;;;1.42;;
53519;SDS011;39397;53.204;5.778;2022-12-15T00:35:15;5.22;;;1.55;;
53519;SDS011;39397;53.204;5.778;2022-12-15T00:38:10;3.45;;;1.52;;
53519;SDS011;39397;53.204;5.778;2022-12-15T00:40:56;9.23;;;1.63;;
53519;SDS011;39397;53.204;5.778;2022-12-15T00:43:32;4.38;;;1.48;;
53519;SDS011;39397;53.204;5.778;2022-12-15T00:45:59;6.63;;;1.33;;
53519;SDS011;39397;53.204;5.778;2022-12-15T00:48:43;6.72;;;1.58;;
53519;SDS011;39397;53.204;5.778;2022-12-15T00:51:10;6.70;;;1.70;;
53519;SDS011;39397;53.204;5.778;2022-12-15T00:53:36;5.55;;;1.27;;
53519;SDS011;39397;53.204;5.778;2022-12-15T00:56:21;5.10;;;1.48;;
53519;SDS011;39397;53.204;5.778;2022-12-15T00:59:06;5.75;;;1.33;;
53519;SDS011;39397;53.204;5.778;2022-12-15T01:01:50;9.05;;;1.30;;
53519;SDS011;39397;53.204;5.778;2022-12-15T01:04:34;2.10;;;0.90;;
53519;SDS011;39397;53.204;5.778;2022-12-15T01:07:18;6.78;;;1.90;;
53519;SDS011;39397;53.204;5.778;2022-12-15T01:10:03;4.05;;;1.05;;
53519;SDS011;39397;53.204;5.778;2022-12-15T01:12:47;5.68;;;1.40;;
53519;SDS011;39397;53.204;5.778;2022-12-15T01:15:31;5.85;;;0.90;;
53519;SDS011;39397;53.204;5.778;2022-12-15T01:18:19;6.40;;;0.90;;
53519;SDS011;39397;53.204;5.778;2022-12-15T01:23:30;3.67;;;0.88;;
53519;SDS011;39397;53.204;5.778;2022-12-15T01:25:56;6.30;;;0.77;;
53519;SDS011;39397;53.204;5.778;2022-12-15T01:28:22;2.45;;;0.70;;
53519;SDS011;39397;53.204;5.778;2022-12-15T01:30:49;6.50;;;1.30;;
53519;SDS011;39397;53.204;5.778;2022-12-15T01:33:15;6.50;;;1.77;;
53519;SDS011;39397;53.204;5.778;2022-12-15T01:35:42;4.13;;;0.80;;
53519;SDS011;39397;53.204;5.778;2022-12-15T01:38:08;5.88;;;2.50;;
53519;SDS011;39397;53.204;5.778;2022-12-15T01:40:34;6.40;;;1.38;;
53519;SDS011;39397;53.204;5.778;2022-12-15T01:43:14;6.68;;;0.90;;
53519;SDS011;39397;53.204;5.778;2022-12-15T01:48:23;7.80;;;0.93;;
53519;SDS011;39397;53.204;5.778;2022-12-15T01:53:42;4.65;;;0.60;;
53519;SDS011;39397;53.204;5.778;2022-12-15T01:56:19;8.32;;;1.23;;
53519;SDS011;39397;53.204;5.778;2022-12-15T01:58:48;5.85;;;0.80;;
53519;SDS011;39397;53.204;5.778;2022-12-15T02:01:17;4.78;;;1.00;;
53519;SDS011;39397;53.204;5.778;2022-12-15T02:03:43;7.80;;;0.80;;
53519;SDS011;39397;53.204;5.778;2022-12-15T02:06:12;5.57;;;0.90;;
53519;SDS011;39397;53.204;5.778;2022-12-15T02:08:48;7.53;;;0.90;;
53519;SDS011;39397;53.204;5.778;2022-12-15T02:13:56;11.05;;;2.55;;
53519;SDS011;39397;53.204;5.778;2022-12-15T02:16:30;7.38;;;1.27;;
53519;SDS011;39397;53.204;5.778;2022-12-15T02:21:36;9.45;;;1.60;;
53519;SDS011;39397;53.204;5.778;2022-12-15T02:30:13;8.43;;;1.17;;
53519;SDS011;39397;53.204;5.778;2022-12-15T02:35:55;5.50;;;0.80;;
53519;SDS011;39397;53.204;5.778;2022-12-15T02:38:32;5.78;;;1.30;;
53519;SDS011;39397;53.204;5.778;2022-12-15T02:41:01;8.15;;;1.73;;
53519;SDS011;39397;53.204;5.778;2022-12-15T02:43:29;5.03;;;1.20;;
53519;SDS011;39397;53.204;5.778;2022-12-15T02:52:10;5.80;;;1.00;;
53519;SDS011;39397;53.204;5.778;2022-12-15T03:00:20;8.50;;;1.70;;
53519;SDS011;39397;53.204;5.778;2022-12-15T03:02:48;8.68;;;1.05;;
53519;SDS011;39397;53.204;5.778;2022-12-15T03:05:16;5.95;;;1.23;;
53519;SDS011;39397;53.204;5.778;2022-12-15T03:07:43;2.83;;;1.08;;
53519;SDS011;39397;53.204;5.778;2022-12-15T03:10:11;5.93;;;1.20;;
53519;SDS011;39397;53.204;5.778;2022-12-15T03:12:38;11.52;;;1.20;;
53519;SDS011;39397;53.204;5.778;2022-12-15T03:15:04;5.75;;;1.20;;
53519;SDS011;39397;53.204;5.778;2022-12-15T03:17:39;7.03;;;1.50;;
53519;SDS011;39397;53.204;5.778;2022-12-15T03:20:08;8.68;;;1.20;;
53519;SDS011;39397;53.204;5.778;2022-12-15T03:22:37;8.93;;;1.40;;
53519;SDS011;39397;53.204;5.778;2022-12-15T03:25:03;5.55;;;0.90;;
53519;SDS011;39397;53.204;5.778;2022-12-15T03:27:29;5.65;;;1.00;;
53519;SDS011;39397;53.204;5.778;2022-12-15T03:29:55;4.22;;;0.80;;
53519;SDS011;39397;53.204;5.778;2022-12-15T03:32:23;6.10;;;0.90;;
53519;SDS011;39397;53.204;5.778;2022-12-15T03:34:49;2.92;;;0.75;;
53519;SDS011;39397;53.204;5.778;2022-12-15T03:37:15;7.10;;;0.80;;
53519;SDS011;39397;53.204;5.778;2022-12-15T03:39:41;7.55;;;0.80;;
53519;SDS011;39397;53.204;5.778;2022-12-15T03:42:06;4.40;;;1.17;;
53519;SDS011;39397;53.204;5.778;2022-12-15T03:44:32;4.43;;;0.70;;
53519;SDS011;39397;53.204;5.778;2022-12-15T03:46:58;5.90;;;1.52;;
53519;SDS011;39397;53.204;5.778;2022-12-15T03:49:24;4.70;;;0.70;;
53519;SDS011;39397;53.204;5.778;2022-12-15T03:51:59;8.55;;;1.23;;
53519;SDS011;39397;53.204;5.778;2022-12-15T03:54:24;6.65;;;0.82;;
53519;SDS011;39397;53.204;5.778;2022-12-15T03:56:50;6.95;;;0.80;;
53519;SDS011;39397;53.204;5.778;2022-12-15T03:59:16;6.85;;;1.02;;
53519;SDS011;39397;53.204;5.778;2022-12-15T04:01:44;5.25;;;0.70;;
53519;SDS011;39397;53.204;5.778;2022-12-15T04:04:13;3.63;;;0.70;;
53519;SDS011;39397;53.204;5.778;2022-12-15T04:06:38;5.05;;;0.55;;
53519;SDS011;39397;53.204;5.778;2022-12-15T04:09:04;6.05;;;0.90;;
53519;SDS011;39397;53.204;5.778;2022-12-15T04:11:30;6.03;;;1.15;;
53519;SDS011;39397;53.204;5.778;2022-12-15T04:13:56;10.75;;;1.02;;
53519;SDS011;39397;53.204;5.778;2022-12-15T04:16:22;7.95;;;1.60;;
53519;SDS011;39397;53.204;5.778;2022-12-15T04:18:48;9.60;;;1.30;;
53519;SDS011;39397;53.204;5.778;2022-12-15T04:21:36;11.25;;;0.93;;
53519;SDS011;39397;53.204;5.778;2022-12-15T04:24:02;5.63;;;0.82;;
53519;SDS011;39397;53.204;5.778;2022-12-15T04:26:46;8.35;;;1.48;;
53519;SDS011;39397;53.204;5.778;2022-12-15T04:29:30;7.22;;;1.33;;
53519;SDS011;39397;53.204;5.778;2022-12-15T04:32:15;9.35;;;1.23;;
53519;SDS011;39397;53.204;5.778;2022-12-15T04:34:59;7.35;;;1.30;;
53519;SDS011;39397;53.204;5.778;2022-12-15T04:37:44;9.82;;;1.30;;
53519;SDS011;39397;53.204;5.778;2022-12-15T04:43:12;3.95;;;1.08;;
53519;SDS011;39397;53.204;5.778;2022-12-15T04:45:56;5.68;;;0.98;;
53519;SDS011;39397;53.204;5.778;2022-12-15T04:48:41;8.40;;;2.25;;
53519;SDS011;39397;53.204;5.778;2022-12-15T04:51:28;4.43;;;1.02;;
53519;SDS011;39397;53.204;5.778;2022-12-15T04:54:12;4.85;;;1.27;;
53519;SDS011;39397;53.204;5.778;2022-12-15T04:56:56;7.85;;;1.13;;
53519;SDS011;39397;53.204;5.778;2022-12-15T04:59:40;6.25;;;0.93;;
53519;SDS011;39397;53.204;5.778;2022-12-15T05:02:25;8.27;;;1.23;;
53519;SDS011;39397;53.204;5.778;2022-12-15T05:05:09;6.15;;;1.13;;
53519;SDS011;39397;53.204;5.778;2022-12-15T05:07:56;9.13;;;1.27;;
53519;SDS011;39397;53.204;5.778;2022-12-15T05:10:41;8.48;;;2.08;;
53519;SDS011;39397;53.204;5.778;2022-12-15T05:13:25;7.38;;;1.58;;
53519;SDS011;39397;53.204;5.778;2022-12-15T05:16:09;11.55;;;1.50;;
53519;SDS011;39397;53.204;5.778;2022-12-15T05:18:53;6.88;;;1.38;;
53519;SDS011;39397;53.204;5.778;2022-12-15T05:21:37;6.70;;;1.40;;
53519;SDS011;39397;53.204;5.778;2022-12-15T05:24:21;7.03;;;1.02;;
53519;SDS011;39397;53.204;5.778;2022-12-15T05:27:06;3.90;;;1.10;;
53519;SDS011;39397;53.204;5.778;2022-12-15T05:29:56;8.55;;;1.20;;
53519;SDS011;39397;53.204;5.778;2022-12-15T05:32:40;6.72;;;0.93;;
53519;SDS011;39397;53.204;5.778;2022-12-15T05:35:06;7.88;;;1.00;;
53519;SDS011;39397;53.204;5.778;2022-12-15T05:37:32;6.55;;;1.20;;
53519;SDS011;39397;53.204;5.778;2022-12-15T05:39:58;9.27;;;1.23;;
53519;SDS011;39397;53.204;5.778;2022-12-15T05:42:23;6.65;;;2.33;;
53519;SDS011;39397;53.204;5.778;2022-12-15T05:44:49;9.82;;;1.70;;
53519;SDS011;39397;53.204;5.778;2022-12-15T05:47:15;8.73;;;0.98;;
53519;SDS011;39397;53.204;5.778;2022-12-15T05:49:41;8.25;;;1.38;;
53519;SDS011;39397;53.204;5.778;2022-12-15T05:52:06;11.25;;;1.10;;
53519;SDS011;39397;53.204;5.778;2022-12-15T05:54:32;11.52;;;1.52;;
53519;SDS011;39397;53.204;5.778;2022-12-15T05:56:58;7.38;;;1.20;;
53519;SDS011;39397;53.204;5.778;2022-12-15T05:59:24;6.30;;;0.65;;
53519;SDS011;39397;53.204;5.778;2022-12-15T06:01:49;11.30;;;1.10;;
53519;SDS011;39397;53.204;5.778;2022-12-15T06:04:15;7.65;;;1.23;;
53519;SDS011;39397;53.204;5.778;2022-12-15T06:06:41;6.75;;;0.82;;
53519;SDS011;39397;53.204;5.778;2022-12-15T06:09:07;7.43;;;1.27;;
53519;SDS011;39397;53.204;5.778;2022-12-15T06:11:33;4.88;;;1.02;;
53519;SDS011;39397;53.204;5.778;2022-12-15T06:13:59;8.45;;;1.08;;
53519;SDS011;39397;53.204;5.778;2022-12-15T06:16:25;9.43;;;1.30;;
53519;SDS011;39397;53.204;5.778;2022-12-15T06:18:55;10.45;;;1.52;;
53519;SDS011;39397;53.204;5.778;2022-12-15T06:21:30;10.32;;;1.48;;
53519;SDS011;39397;53.204;5.778;2022-12-15T06:24:04;9.60;;;1.42;;
53519;SDS011;39397;53.204;5.778;2022-12-15T06:26:37;8.20;;;1.30;;
53519;SDS011;39397;53.204;5.778;2022-12-15T06:29:07;8.45;;;1.13;;
53519;SDS011;39397;53.204;5.778;2022-12-15T06:31:35;8.65;;;1.42;;
53519;SDS011;39397;53.204;5.778;2022-12-15T06:34:02;5.78;;;0.90;;
53519;SDS011;39397;53.204;5.778;2022-12-15T06:36:30;5.82;;;1.00;;
53519;SDS011;39397;53.204;5.778;2022-12-15T06:38:59;7.15;;;1.02;;
53519;SDS011;39397;53.204;5.778;2022-12-15T06:41:26;10.90;;;1.40;;
53519;SDS011;39397;53.204;5.778;2022-12-15T06:43:54;5.20;;;1.52;;
53519;SDS011;39397;53.204;5.778;2022-12-15T06:46:21;5.60;;;1.15;;
53519;SDS011;39397;53.204;5.778;2022-12-15T06:48:48;9.38;;;1.30;;
53519;SDS011;39397;53.204;5.778;2022-12-15T06:51:14;7.53;;;1.98;;
53519;SDS011;39397;53.204;5.778;2022-12-15T06:53:40;6.47;;;1.17;;
53519;SDS011;39397;53.204;5.778;2022-12-15T06:56:12;5.82;;;1.35;;
53519;SDS011;39397;53.204;5.778;2022-12-15T06:58:51;3.63;;;0.80;;
53519;SDS011;39397;53.204;5.778;2022-12-15T07:01:17;10.98;;;1.10;;
53519;SDS011;39397;53.204;5.778;2022-12-15T07:03:44;12.88;;;1.63;;
53519;SDS011;39397;53.204;5.778;2022-12-15T07:06:11;6.03;;;1.27;;
53519;SDS011;39397;53.204;5.778;2022-12-15T07:08:38;7.13;;;1.50;;
53519;SDS011;39397;53.204;5.778;2022-12-15T07:11:05;8.93;;;1.83;;
53519;SDS011;39397;53.204;5.778;2022-12-15T07:13:32;8.90;;;1.75;;
53519;SDS011;39397;53.204;5.778;2022-12-15T07:15:58;11.52;;;1.60;;
53519;SDS011;39397;53.204;5.778;2022-12-15T07:18:25;7.43;;;1.73;;
53519;SDS011;39397;53.204;5.778;2022-12-15T07:20:52;11.23;;;1.42;;
53519;SDS011;39397;53.204;5.778;2022-12-15T07:23:17;6.45;;;1.25;;
53519;SDS011;39397;53.204;5.778;2022-12-15T07:25:43;7.47;;;1.58;;
53519;SDS011;39397;53.204;5.778;2022-12-15T07:28:09;7.82;;;1.40;;
53519;SDS011;39397;53.204;5.778;2022-12-15T07:30:35;5.22;;;1.38;;
53519;SDS011;39397;53.204;5.778;2022-12-15T07:33:04;11.65;;;1.83;;
53519;SDS011;39397;53.204;5.778;2022-12-15T07:38:17;9.90;;;1.38;;
53519;SDS011;39397;53.204;5.778;2022-12-15T07:40:43;8.07;;;1.45;;
53519;SDS011;39397;53.204;5.778;2022-12-15T07:43:09;7.25;;;2.55;;
53519;SDS011;39397;53.204;5.778;2022-12-15T07:45:35;8.60;;;2.20;;
53519;SDS011;39397;53.204;5.778;2022-12-15T07:48:03;6.82;;;1.35;;
53519;SDS011;39397;53.204;5.778;2022-12-15T07:50:29;9.10;;;1.60;;
53519;SDS011;39397;53.204;5.778;2022-12-15T07:52:55;10.02;;;1.88;;
53519;SDS011;39397;53.204;5.778;2022-12-15T07:55:21;16.95;;;2.97;;
53519;SDS011;39397;53.204;5.778;2022-12-15T07:57:47;9.77;;;2.25;;
53519;SDS011;39397;53.204;5.778;2022-12-15T08:00:16;13.10;;;2.17;;
53519;SDS011;39397;53.204;5.778;2022-12-15T08:02:43;10.85;;;1.90;;
53519;SDS011;39397;53.204;5.778;2022-12-15T08:05:09;7.32;;;1.50;;
53519;SDS011;39397;53.204;5.778;2022-12-15T08:07:35;7.10;;;1.23;;
53519;SDS011;39397;53.204;5.778;2022-12-15T08:10:00;7.25;;;1.40;;
53519;SDS011;39397;53.204;5.778;2022-12-15T08:12:27;10.38;;;1.60;;
53519;SDS011;39397;53.204;5.778;2022-12-15T08:14:53;9.38;;;1.10;;
53519;SDS011;39397;53.204;5.778;2022-12-15T08:17:19;6.18;;;1.50;;
53519;SDS011;39397;53.204;5.778;2022-12-15T08:19:45;11.88;;;2.42;;
53519;SDS011;39397;53.204;5.778;2022-12-15T08:22:13;8.48;;;1.70;;
53519;SDS011;39397;53.204;5.778;2022-12-15T08:24:39;9.35;;;1.50;;
53519;SDS011;39397;53.204;5.778;2022-12-15T08:27:08;4.93;;;1.40;;
53519;SDS011;39397;53.204;5.778;2022-12-15T08:29:34;7.75;;;1.38;;
53519;SDS011;39397;53.204;5.778;2022-12-15T08:32:00;13.07;;;1.70;;
53519;SDS011;39397;53.204;5.778;2022-12-15T08:34:25;10.02;;;1.92;;
53519;SDS011;39397;53.204;5.778;2022-12-15T08:36:51;7.32;;;2.00;;
53519;SDS011;39397;53.204;5.778;2022-12-15T08:39:18;9.32;;;1.92;;
53519;SDS011;39397;53.204;5.778;2022-12-15T08:41:44;10.40;;;2.03;;
53519;SDS011;39397;53.204;5.778;2022-12-15T08:44:10;6.43;;;1.98;;
53519;SDS011;39397;53.204;5.778;2022-12-15T08:46:35;9.23;;;1.88;;
53519;SDS011;39397;53.204;5.778;2022-12-15T08:49:02;10.35;;;2.20;;
53519;SDS011;39397;53.204;5.778;2022-12-15T08:51:29;7.47;;;1.77;;
53519;SDS011;39397;53.204;5.778;2022-12-15T08:53:57;7.70;;;1.73;;
53519;SDS011;39397;53.204;5.778;2022-12-15T08:56:24;5.32;;;1.42;;
53519;SDS011;39397;53.204;5.778;2022-12-15T08:58:55;8.43;;;1.75;;
53519;SDS011;39397;53.204;5.778;2022-12-15T09:01:23;11.02;;;1.80;;
53519;SDS011;39397;53.204;5.778;2022-12-15T09:03:51;9.18;;;1.73;;
53519;SDS011;39397;53.204;5.778;2022-12-15T09:06:24;7.25;;;2.03;;
53519;SDS011;39397;53.204;5.778;2022-12-15T09:08:53;10.20;;;2.13;;
53519;SDS011;39397;53.204;5.778;2022-12-15T09:11:20;8.75;;;1.50;;
53519;SDS011;39397;53.204;5.778;2022-12-15T09:13:47;9.38;;;1.80;;
53519;SDS011;39397;53.204;5.778;2022-12-15T09:16:14;9.10;;;1.60;;
53519;SDS011;39397;53.204;5.778;2022-12-15T09:18:45;10.20;;;1.55;;
53519;SDS011;39397;53.204;5.778;2022-12-15T09:21:13;9.70;;;1.70;;
53519;SDS011;39397;53.204;5.778;2022-12-15T09:23:39;12.20;;;1.90;;
53519;SDS011;39397;53.204;5.778;2022-12-15T09:26:09;10.35;;;2.17;;
53519;SDS011;39397;53.204;5.778;2022-12-15T09:28:37;7.05;;;1.73;;
53519;SDS011;39397;53.204;5.778;2022-12-15T09:33:29;6.85;;;1.90;;
53519;SDS011;39397;53.204;5.778;2022-12-15T09:35:55;5.95;;;1.30;;
53519;SDS011;39397;53.204;5.778;2022-12-15T09:38:21;7.40;;;2.08;;
53519;SDS011;39397;53.204;5.778;2022-12-15T09:40:47;8.45;;;1.65;;
53519;SDS011;39397;53.204;5.778;2022-12-15T09:43:14;10.48;;;1.95;;
53519;SDS011;39397;53.204;5.778;2022-12-15T09:45:46;9.27;;;2.05;;
53519;SDS011;39397;53.204;5.778;2022-12-15T09:48:18;13.07;;;1.90;;
53519;SDS011;39397;53.204;5.778;2022-12-15T09:50:47;7.35;;;1.60;;
53519;SDS011;39397;53.204;5.778;2022-12-15T09:53:16;7.88;;;1.88;;
53519;SDS011;39397;53.204;5.778;2022-12-15T09:55:47;9.20;;;2.33;;
53519;SDS011;39397;53.204;5.778;2022-12-15T09:58:28;7.40;;;1.45;;
53519;SDS011;39397;53.204;5.778;2022-12-15T10:00:56;7.20;;;1.40;;
53519;SDS011;39397;53.204;5.778;2022-12-15T10:03:55;8.13;;;1.27;;
53519;SDS011;39397;53.204;5.778;2022-12-15T10:06:24;8.48;;;1.35;;
53519;SDS011;39397;53.204;5.778;2022-12-15T10:09:02;7.30;;;1.52;;
53519;SDS011;39397;53.204;5.778;2022-12-15T10:11:58;13.02;;;1.63;;
53519;SDS011;39397;53.204;5.778;2022-12-15T10:17:10;9.30;;;1.55;;
53519;SDS011;39397;53.204;5.778;2022-12-15T10:22:43;9.30;;;1.40;;
53519;SDS011;39397;53.204;5.778;2022-12-15T10:25:17;11.63;;;1.40;;
53519;SDS011;39397;53.204;5.778;2022-12-15T10:27:57;9.98;;;1.45;;
53519;SDS011;39397;53.204;5.778;2022-12-15T10:33:40;8.98;;;1.55;;
53519;SDS011;39397;53.204;5.778;2022-12-15T10:36:11;7.78;;;1.52;;
53519;SDS011;39397;53.204;5.778;2022-12-15T10:38:40;5.03;;;1.67;;
53519;SDS011;39397;53.204;5.778;2022-12-15T10:41:31;6.72;;;1.40;;
53519;SDS011;39397;53.204;5.778;2022-12-15T10:43:56;10.52;;;1.73;;
53519;SDS011;39397;53.204;5.778;2022-12-15T10:46:26;8.30;;;1.35;;
53519;SDS011;39397;53.204;5.778;2022-12-15T10:48:57;8.90;;;1.80;;
53519;SDS011;39397;53.204;5.778;2022-12-15T10:54:11;9.75;;;1.60;;
53519;SDS011;39397;53.204;5.778;2022-12-15T10:56:47;8.77;;;1.58;;
53519;SDS011;39397;53.204;5.778;2022-12-15T11:01:47;8.70;;;1.35;;
53519;SDS011;39397;53.204;5.778;2022-12-15T11:04:31;9.23;;;1.75;;
53519;SDS011;39397;53.204;5.778;2022-12-15T11:09:32;13.88;;;1.60;;
53519;SDS011;39397;53.204;5.778;2022-12-15T11:12:24;8.25;;;2.13;;
53519;SDS011;39397;53.204;5.778;2022-12-15T11:17:45;8.85;;;2.25;;
53519;SDS011;39397;53.204;5.778;2022-12-15T11:20:41;5.93;;;1.40;;
53519;SDS011;39397;53.204;5.778;2022-12-15T11:32:04;13.43;;;1.27;;
53519;SDS011;39397;53.204;5.778;2022-12-15T11:34:38;9.55;;;1.27;;
53519;SDS011;39397;53.204;5.778;2022-12-15T11:37:13;9.70;;;1.50;;
53519;SDS011;39397;53.204;5.778;2022-12-15T11:48:20;6.45;;;1.52;;
53519;SDS011;39397;53.204;5.778;2022-12-15T11:50:59;9.48;;;1.20;;
53519;SDS011;39397;53.204;5.778;2022-12-15T12:04:09;7.32;;;2.30;;
53519;SDS011;39397;53.204;5.778;2022-12-15T12:13:03;9.10;;;1.50;;
53519;SDS011;39397;53.204;5.778;2022-12-15T12:18:33;5.60;;;1.40;;
53519;SDS011;39397;53.204;5.778;2022-12-15T12:21:14;6.40;;;1.95;;
53519;SDS011;39397;53.204;5.778;2022-12-15T12:23:44;9.43;;;1.55;;
53519;SDS011;39397;53.204;5.778;2022-12-15T12:27:03;7.13;;;1.13;;
53519;SDS011;39397;53.204;5.778;2022-12-15T12:29:29;8.45;;;1.65;;
53519;SDS011;39397;53.204;5.778;2022-12-15T12:32:17;7.43;;;1.58;;
53519;SDS011;39397;53.204;5.778;2022-12-15T12:35:22;8.45;;;2.10;;
53519;SDS011;39397;53.204;5.778;2022-12-15T12:38:10;7.68;;;1.05;;
53519;SDS011;39397;53.204;5.778;2022-12-15T12:43:47;5.22;;;1.25;;
53519;SDS011;39397;53.204;5.778;2022-12-15T12:46:23;7.03;;;1.35;;
53519;SDS011;39397;53.204;5.778;2022-12-15T12:49:24;7.40;;;1.25;;
53519;SDS011;39397;53.204;5.778;2022-12-15T12:51:54;10.52;;;2.85;;
53519;SDS011;39397;53.204;5.778;2022-12-15T13:02:44;6.95;;;1.98;;
53519;SDS011;39397;53.204;5.778;2022-12-15T13:05:23;8.02;;;2.10;;
53519;SDS011;39397;53.204;5.778;2022-12-15T13:08:15;7.10;;;1.70;;
53519;SDS011;39397;53.204;5.778;2022-12-15T13:15:43;9.25;;;2.00;;
53519;SDS011;39397;53.204;5.778;2022-12-15T13:20:42;7.88;;;2.00;;
53519;SDS011;39397;53.204;5.778;2022-12-15T13:39:49;8.40;;;1.52;;
53519;SDS011;39397;53.204;5.778;2022-12-15T13:47:09;10.75;;;1.35;;
53519;SDS011;39397;53.204;5.778;2022-12-15T13:50:06;7.93;;;1.65;;
53519;SDS011;39397;53.204;5.778;2022-12-15T13:52:40;6.72;;;1.48;;
53519;SDS011;39397;53.204;5.778;2022-12-15T13:55:15;5.07;;;1.42;;
53519;SDS011;39397;53.204;5.778;2022-12-15T13:57:54;3.65;;;0.77;;
53519;SDS011;39397;53.204;5.778;2022-12-15T14:00:24;3.90;;;0.80;;
53519;SDS011;39397;53.204;5.778;2022-12-15T14:02:50;5.07;;;1.02;;
53519;SDS011;39397;53.204;5.778;2022-12-15T14:05:17;8.43;;;1.23;;
53519;SDS011;39397;53.204;5.778;2022-12-15T14:10:42;11.05;;;1.20;;
53519;SDS011;39397;53.204;5.778;2022-12-15T14:13:12;5.00;;;0.82;;
53519;SDS011;39397;53.204;5.778;2022-12-15T14:15:46;3.53;;;0.65;;
53519;SDS011;39397;53.204;5.778;2022-12-15T14:18:36;8.02;;;0.93;;
53519;SDS011;39397;53.204;5.778;2022-12-15T14:21:07;7.65;;;1.00;;
53519;SDS011;39397;53.204;5.778;2022-12-15T14:23:45;5.63;;;0.88;;
53519;SDS011;39397;53.204;5.778;2022-12-15T14:26:12;8.23;;;0.77;;
53519;SDS011;39397;53.204;5.778;2022-12-15T14:28:40;5.75;;;1.00;;
53519;SDS011;39397;53.204;5.778;2022-12-15T14:31:19;5.05;;;1.00;;
53519;SDS011;39397;53.204;5.778;2022-12-15T14:33:47;5.93;;;0.98;;
53519;SDS011;39397;53.204;5.778;2022-12-15T14:36:17;6.47;;;1.02;;
53519;SDS011;39397;53.204;5.778;2022-12-15T14:38:57;6.38;;;1.33;;
53519;SDS011;39397;53.204;5.778;2022-12-15T14:41:29;5.47;;;1.00;;
53519;SDS011;39397;53.204;5.778;2022-12-15T14:43:59;5.35;;;0.90;;
53519;SDS011;39397;53.204;5.778;2022-12-15T14:46:29;5.75;;;1.50;;
53519;SDS011;39397;53.204;5.778;2022-12-15T14:49:04;6.32;;;1.27;;
53519;SDS011;39397;53.204;5.778;2022-12-15T14:51:43;9.85;;;2.10;;
53519;SDS011;39397;53.204;5.778;2022-12-15T14:54:26;7.97;;;2.22;;
53519;SDS011;39397;53.204;5.778;2022-12-15T14:57:14;7.88;;;1.50;;
53519;SDS011;39397;53.204;5.778;2022-12-15T14:59:44;5.72;;;1.23;;
53519;SDS011;39397;53.204;5.778;2022-12-15T15:07:32;5.75;;;0.93;;
53519;SDS011;39397;53.204;5.778;2022-12-15T15:10:22;6.47;;;1.00;;
53519;SDS011;39397;53.204;5.778;2022-12-15T15:12:53;5.43;;;1.15;;
53519;SDS011;39397;53.204;5.778;2022-12-15T15:15:20;5.63;;;1.35;;
53519;SDS011;39397;53.204;5.778;2022-12-15T15:17:50;4.07;;;1.38;;
53519;SDS011;39397;53.204;5.778;2022-12-15T15:20:20;4.18;;;1.20;;
53519;SDS011;39397;53.204;5.778;2022-12-15T15:25:36;4.13;;;1.08;;
53519;SDS011;39397;53.204;5.778;2022-12-15T15:28:14;7.35;;;1.25;;
53519;SDS011;39397;53.204;5.778;2022-12-15T15:30:46;4.45;;;0.90;;
53519;SDS011;39397;53.204;5.778;2022-12-15T15:33:16;8.38;;;2.33;;
53519;SDS011;39397;53.204;5.778;2022-12-15T15:35:43;7.78;;;1.60;;
53519;SDS011;39397;53.204;5.778;2022-12-15T15:38:17;5.55;;;1.70;;
53519;SDS011;39397;53.204;5.778;2022-12-15T15:40:53;6.72;;;2.50;;
53519;SDS011;39397;53.204;5.778;2022-12-15T15:43:24;9.82;;;3.63;;
53519;SDS011;39397;53.204;5.778;2022-12-15T15:46:01;8.68;;;3.55;;
53519;SDS011;39397;53.204;5.778;2022-12-15T15:48:34;6.30;;;2.33;;
53519;SDS011;39397;53.204;5.778;2022-12-15T15:51:36;5.80;;;2.90;;
53519;SDS011;39397;53.204;5.778;2022-12-15T15:54:06;4.95;;;3.20;;
53519;SDS011;39397;53.204;5.778;2022-12-15T15:56:37;8.57;;;4.10;;
53519;SDS011;39397;53.204;5.778;2022-12-15T16:02:01;9.77;;;4.10;;
53519;SDS011;39397;53.204;5.778;2022-12-15T16:04:27;6.13;;;2.00;;
53519;SDS011;39397;53.204;5.778;2022-12-15T16:06:52;4.50;;;1.40;;
53519;SDS011;39397;53.204;5.778;2022-12-15T16:09:18;6.07;;;3.22;;
53519;SDS011;39397;53.204;5.778;2022-12-15T16:11:45;11.35;;;7.95;;
53519;SDS011;39397;53.204;5.778;2022-12-15T16:14:11;10.07;;;7.45;;
53519;SDS011;39397;53.204;5.778;2022-12-15T16:16:38;5.60;;;2.30;;
53519;SDS011;39397;53.204;5.778;2022-12-15T16:19:04;5.43;;;1.77;;
53519;SDS011;39397;53.204;5.778;2022-12-15T16:21:30;7.10;;;1.90;;
53519;SDS011;39397;53.204;5.778;2022-12-15T16:23:55;6.00;;;1.60;;
53519;SDS011;39397;53.204;5.778;2022-12-15T16:26:29;6.80;;;1.75;;
53519;SDS011;39397;53.204;5.778;2022-12-15T16:31:29;5.07;;;2.45;;
53519;SDS011;39397;53.204;5.778;2022-12-15T16:34:03;4.10;;;2.20;;
53519;SDS011;39397;53.204;5.778;2022-12-15T16:36:33;4.43;;;1.77;;
53519;SDS011;39397;53.204;5.778;2022-12-15T16:38:59;13.85;;;3.88;;
53519;SDS011;39397;53.204;5.778;2022-12-15T16:41:27;8.85;;;3.70;;
53519;SDS011;39397;53.204;5.778;2022-12-15T16:43:55;5.13;;;1.70;;
53519;SDS011;39397;53.204;5.778;2022-12-15T16:46:22;4.68;;;1.73;;
53519;SDS011;39397;53.204;5.778;2022-12-15T16:48:48;7.30;;;1.58;;
53519;SDS011;39397;53.204;5.778;2022-12-15T16:51:25;3.50;;;1.35;;
53519;SDS011;39397;53.204;5.778;2022-12-15T16:53:58;6.10;;;2.03;;
53519;SDS011;39397;53.204;5.778;2022-12-15T16:59:00;5.68;;;1.45;;
53519;SDS011;39397;53.204;5.778;2022-12-15T17:01:25;5.13;;;2.10;;
53519;SDS011;39397;53.204;5.778;2022-12-15T17:03:54;8.48;;;2.20;;
53519;SDS011;39397;53.204;5.778;2022-12-15T17:06:21;5.88;;;1.50;;
53519;SDS011;39397;53.204;5.778;2022-12-15T17:08:50;10.73;;;2.85;;
53519;SDS011;39397;53.204;5.778;2022-12-15T17:11:20;5.80;;;2.15;;
53519;SDS011;39397;53.204;5.778;2022-12-15T17:13:49;12.50;;;3.22;;
53519;SDS011;39397;53.204;5.778;2022-12-15T17:16:17;8.32;;;2.47;;
53519;SDS011;39397;53.204;5.778;2022-12-15T17:18:44;7.35;;;1.90;;
53519;SDS011;39397;53.204;5.778;2022-12-15T17:21:22;5.85;;;4.10;;
53519;SDS011;39397;53.204;5.778;2022-12-15T17:24:05;3.55;;;2.38;;
53519;SDS011;39397;53.204;5.778;2022-12-15T17:26:35;4.88;;;2.20;;
53519;SDS011;39397;53.204;5.778;2022-12-15T17:29:06;8.25;;;2.97;;
53519;SDS011;39397;53.204;5.778;2022-12-15T17:31:37;4.53;;;2.25;;
53519;SDS011;39397;53.204;5.778;2022-12-15T17:36:53;6.80;;;2.30;;
53519;SDS011;39397;53.204;5.778;2022-12-15T17:39:23;5.95;;;1.92;;
53519;SDS011;39397;53.204;5.778;2022-12-15T17:41:50;7.68;;;3.72;;
53519;SDS011;39397;53.204;5.778;2022-12-15T17:44:20;9.55;;;4.38;;
53519;SDS011;39397;53.204;5.778;2022-12-15T17:46:47;7.43;;;2.80;;
53519;SDS011;39397;53.204;5.778;2022-12-15T17:49:17;5.78;;;2.50;;
53519;SDS011;39397;53.204;5.778;2022-12-15T17:51:43;6.68;;;3.05;;
53519;SDS011;39397;53.204;5.778;2022-12-15T17:54:16;7.35;;;3.17;;
53519;SDS011;39397;53.204;5.778;2022-12-15T17:56:44;6.57;;;2.40;;
53519;SDS011;39397;53.204;5.778;2022-12-15T17:59:12;4.53;;;1.52;;
53519;SDS011;39397;53.204;5.778;2022-12-15T18:01:40;4.70;;;1.77;;